Time;durP1;ratioP1;P1;durP2;ratioP2;P2;SDS_P1;SDS_P2;PMS_P1;PMS_P2;Temp;Humidity;BMP_temperature;BMP_pressure;BME280_temperature;BME280_humidity;BME280_pressure;Samples;Min_cycle;Max_cycle;Signal;HPM_P1;HPM_P2
2022/05/05 00:01:03;;;;;;;0.70;0.70;;;11.90;99.90;;;;;;5165735;28;20037;-75
2022/05/05 00:03:35;;;;;;;1.42;1.33;;;11.90;99.90;;;;;;5181477;28;20048;-77
2022/05/05 00:06:08;;;;;;;0.60;0.60;;;11.90;99.90;;;;;;5154003;28;20046;-75
2022/05/05 00:08:39;;;;;;;0.60;0.60;;;11.90;99.90;;;;;;5165068;28;20021;-76
2022/05/05 00:17:15;;;;;;;0.70;0.70;;;12.00;99.90;;;;;;5172334;28;20034;-78
2022/05/05 00:19:50;;;;;;;0.70;0.70;;;12.00;99.90;;;;;;5172976;28;20026;-77
2022/05/05 00:22:21;;;;;;;1.05;1.05;;;12.00;99.90;;;;;;5143828;28;20240;-76
2022/05/05 00:24:55;;;;;;;1.05;1.05;;;12.00;99.90;;;;;;5167330;28;20034;-75
2022/05/05 00:27:29;;;;;;;1.30;1.23;;;12.00;99.90;;;;;;5163137;28;20041;-75
2022/05/05 00:30:03;;;;;;;0.80;0.80;;;12.00;99.90;;;;;;5164246;28;20284;-75
2022/05/05 00:32:34;;;;;;;0.60;0.60;;;12.00;99.90;;;;;;5180791;28;20028;-77
2022/05/05 00:35:05;;;;;;;1.10;1.10;;;12.00;99.90;;;;;;5182765;28;20030;-75
2022/05/05 00:37:38;;;;;;;1.23;1.23;;;12.00;99.90;;;;;;5147990;28;20041;-77
2022/05/05 00:40:13;;;;;;;0.93;0.93;;;11.90;99.90;;;;;;5180741;28;20021;-76
2022/05/05 00:42:44;;;;;;;0.90;0.90;;;11.90;99.90;;;;;;5164418;28;20040;-76
2022/05/05 00:45:18;;;;;;;0.70;0.70;;;11.90;99.90;;;;;;5182279;28;20029;-77
2022/05/05 00:47:50;;;;;;;0.70;0.70;;;11.90;99.90;;;;;;5180709;28;20021;-77
2022/05/05 00:50:22;;;;;;;1.00;1.00;;;11.80;99.90;;;;;;5173126;28;20038;-76
2022/05/05 00:52:55;;;;;;;1.25;1.15;;;11.80;99.90;;;;;;5174173;28;20055;-76
2022/05/05 00:55:31;;;;;;;0.77;0.77;;;11.70;99.90;;;;;;5161796;28;20044;-76
2022/05/05 00:58:05;;;;;;;0.80;0.80;;;11.60;99.90;;;;;;5162869;28;20029;-77
2022/05/05 01:00:38;;;;;;;0.95;0.95;;;11.50;99.90;;;;;;5165212;28;20025;-76
2022/05/05 01:03:12;;;;;;;1.02;1.02;;;11.40;99.90;;;;;;5186573;28;20059;-77
2022/05/05 01:05:52;;;;;;;0.70;0.70;;;11.30;99.90;;;;;;5167692;28;20275;-78
2022/05/05 01:08:27;;;;;;;0.70;0.70;;;11.20;99.90;;;;;;5183363;28;20036;-76
2022/05/05 01:10:59;;;;;;;0.70;0.70;;;11.10;99.90;;;;;;5181747;28;20017;-78
2022/05/05 01:13:33;;;;;;;0.75;0.75;;;11.00;99.90;;;;;;5181451;28;20048;-77
2022/05/05 01:16:05;;;;;;;0.80;0.80;;;10.90;99.90;;;;;;5180967;28;20032;-76
2022/05/05 01:18:39;;;;;;;1.45;1.45;;;10.90;99.90;;;;;;5180004;28;20037;-76
2022/05/05 01:21:10;;;;;;;0.80;0.80;;;10.80;99.90;;;;;;5168782;28;20553;-77
2022/05/05 01:23:44;;;;;;;0.60;0.60;;;10.80;99.90;;;;;;5172477;28;20141;-77
2022/05/05 01:29:19;;;;;;;0.90;0.90;;;10.70;99.90;;;;;;5118298;28;20038;-76
2022/05/05 01:31:56;;;;;;;1.02;1.02;;;10.60;99.90;;;;;;5118362;29;20043;-79
2022/05/05 01:34:30;;;;;;;0.80;0.80;;;10.60;99.90;;;;;;5103418;29;20039;-76
2022/05/05 01:37:04;;;;;;;0.80;0.80;;;10.50;99.90;;;;;;5130495;28;20031;-76
2022/05/05 01:39:36;;;;;;;0.75;0.75;;;10.40;99.90;;;;;;5153268;28;20076;-76
2022/05/05 01:42:09;;;;;;;1.08;1.08;;;10.30;99.90;;;;;;5181352;28;20037;-75
2022/05/05 01:44:41;;;;;;;0.85;0.85;;;10.30;99.90;;;;;;5178828;28;20052;-76
2022/05/05 01:47:14;;;;;;;0.70;0.70;;;10.20;99.90;;;;;;5163405;28;20034;-78
2022/05/05 01:49:46;;;;;;;1.17;1.17;;;10.20;99.90;;;;;;5180822;28;20316;-77
2022/05/05 01:52:22;;;;;;;0.93;0.93;;;10.20;99.90;;;;;;5178857;28;20226;-78
2022/05/05 01:54:56;;;;;;;0.70;0.70;;;10.10;99.90;;;;;;5181248;28;20335;-77
2022/05/05 01:57:27;;;;;;;0.80;0.80;;;10.10;99.90;;;;;;5181202;28;20041;-76
2022/05/05 02:00:00;;;;;;;0.77;0.77;;;10.00;99.90;;;;;;5179917;28;20040;-77
2022/05/05 02:02:32;;;;;;;0.70;0.70;;;10.10;99.90;;;;;;5148409;28;20213;-75
2022/05/05 02:05:09;;;;;;;1.60;1.50;;;10.00;99.90;;;;;;5154360;28;20053;-75
2022/05/05 02:07:42;;;;;;;0.70;0.70;;;10.10;99.90;;;;;;5162999;28;20037;-77
2022/05/05 02:10:20;;;;;;;0.60;0.60;;;10.00;99.90;;;;;;5179299;28;20057;-78
2022/05/05 02:12:53;;;;;;;0.88;0.88;;;9.90;99.90;;;;;;5169958;28;20025;-77
2022/05/05 02:15:30;;;;;;;0.70;0.70;;;10.00;99.90;;;;;;5164706;28;20044;-75
2022/05/05 02:18:20;;;;;;;0.63;0.63;;;10.00;99.90;;;;;;5178582;28;20045;-75
2022/05/05 02:20:54;;;;;;;0.70;0.70;;;10.00;99.90;;;;;;5165284;28;20033;-76
2022/05/05 02:23:32;;;;;;;0.70;0.70;;;9.90;99.90;;;;;;5161783;28;20046;-75
2022/05/05 02:26:04;;;;;;;0.50;0.50;;;9.80;99.90;;;;;;5161765;28;20048;-76
2022/05/05 02:28:41;;;;;;;0.60;0.60;;;9.80;99.90;;;;;;5180396;28;20355;-76
2022/05/05 02:31:15;;;;;;;5.55;1.52;;;9.90;99.90;;;;;;5179268;28;20252;-78
2022/05/05 02:33:49;;;;;;;0.70;0.70;;;9.80;99.90;;;;;;5179401;28;20052;-77
2022/05/05 02:39:10;;;;;;;0.70;0.70;;;9.80;99.90;;;;;;5160583;28;20037;-75
2022/05/05 02:41:46;;;;;;;0.82;0.82;;;9.80;99.90;;;;;;5166457;28;20038;-76
2022/05/05 02:44:17;;;;;;;0.80;0.80;;;9.70;99.90;;;;;;5169828;28;20049;-78
2022/05/05 02:46:50;;;;;;;0.70;0.70;;;9.70;99.90;;;;;;5184466;28;20018;-77
2022/05/05 02:49:27;;;;;;;0.90;0.90;;;9.70;99.90;;;;;;5164918;28;20056;-77
2022/05/05 02:52:01;;;;;;;1.30;1.10;;;9.70;99.90;;;;;;5183655;28;20021;-77
2022/05/05 02:54:50;;;;;;;0.80;0.80;;;9.70;99.90;;;;;;5167300;28;20038;-77
2022/05/05 02:57:23;;;;;;;0.75;0.75;;;9.70;99.90;;;;;;5143254;28;20083;-76
2022/05/05 02:59:55;;;;;;;0.65;0.65;;;9.60;99.90;;;;;;5129487;28;20034;-76
2022/05/05 03:02:26;;;;;;;0.90;0.90;;;9.60;99.90;;;;;;5137629;28;20049;-77
2022/05/05 03:04:57;;;;;;;0.70;0.70;;;9.60;99.90;;;;;;5173084;28;20041;-77
2022/05/05 03:07:35;;;;;;;4.13;3.78;;;9.60;99.90;;;;;;5152424;28;20045;-76
2022/05/05 03:10:09;;;;;;;0.80;0.80;;;9.60;99.90;;;;;;5167014;28;20040;-77
2022/05/05 03:12:43;;;;;;;;;;;9.50;99.90;;;;;;5162154;28;20040;-76
2022/05/05 03:15:19;;;;;;;0.60;0.60;;;9.50;99.90;;;;;;5165786;28;20127;-76
2022/05/05 03:17:50;;;;;;;0.60;0.60;;;9.50;99.90;;;;;;5172908;28;20029;-77
2022/05/05 03:20:22;;;;;;;0.70;0.70;;;9.40;99.90;;;;;;5160803;28;20041;-76
2022/05/05 03:22:58;;;;;;;0.65;0.65;;;9.40;99.90;;;;;;5148837;28;20034;-77
2022/05/05 03:25:33;;;;;;;0.55;0.55;;;9.30;99.90;;;;;;5169527;28;20030;-77
2022/05/05 03:28:08;;;;;;;1.00;1.00;;;9.20;99.90;;;;;;5129994;28;20049;-77
2022/05/05 03:30:43;;;;;;;0.60;0.60;;;9.30;99.90;;;;;;5129092;28;20038;-76
2022/05/05 03:33:17;;;;;;;0.73;0.73;;;9.30;99.90;;;;;;5145206;28;20130;-77
2022/05/05 03:35:48;;;;;;;1.15;1.15;;;9.30;99.90;;;;;;5132818;28;20030;-76
2022/05/05 03:38:20;;;;;;;1.50;0.88;;;9.30;99.90;;;;;;5161659;28;20042;-77
2022/05/05 03:40:57;;;;;;;1.55;1.45;;;9.30;99.90;;;;;;5129718;28;20034;-76
2022/05/05 03:43:31;;;;;;;0.77;0.77;;;9.20;99.90;;;;;;5144656;28;20038;-77
2022/05/05 03:46:05;;;;;;;0.70;0.70;;;9.30;99.90;;;;;;5162920;28;20199;-77
2022/05/05 03:48:39;;;;;;;0.82;0.82;;;9.30;99.90;;;;;;5165696;28;20041;-77
2022/05/05 03:51:11;;;;;;;1.35;1.35;;;9.30;99.90;;;;;;5121222;28;20053;-75
2022/05/05 03:53:44;;;;;;;0.85;0.85;;;9.40;99.90;;;;;;5173048;28;20037;-76
2022/05/05 03:56:15;;;;;;;0.73;0.73;;;9.40;99.90;;;;;;5183316;28;20029;-76
2022/05/05 03:58:52;;;;;;;0.63;0.63;;;9.40;99.90;;;;;;5197213;28;20040;-76
2022/05/05 04:01:23;;;;;;;0.88;0.88;;;9.30;99.90;;;;;;5179825;28;20233;-76
2022/05/05 04:03:57;;;;;;;0.60;0.60;;;9.30;99.90;;;;;;5166990;28;20252;-77
2022/05/05 04:06:33;;;;;;;2.75;1.00;;;9.30;99.90;;;;;;5190507;28;20260;-75
2022/05/05 04:09:05;;;;;;;1.20;1.20;;;9.40;99.90;;;;;;5182842;28;20328;-76
2022/05/05 04:11:39;;;;;;;0.70;0.70;;;9.40;99.90;;;;;;5182600;28;20032;-76
2022/05/05 04:14:13;;;;;;;1.02;1.02;;;9.40;99.90;;;;;;5164743;28;20270;-75
2022/05/05 04:16:46;;;;;;;0.82;0.82;;;9.50;99.90;;;;;;5131510;28;20042;-74
2022/05/05 04:19:17;;;;;;;0.60;0.60;;;9.60;99.90;;;;;;5167861;28;20026;-76
2022/05/05 04:21:49;;;;;;;1.00;1.00;;;9.60;99.90;;;;;;5173821;28;20358;-75
2022/05/05 04:24:20;;;;;;;0.95;0.95;;;9.70;99.90;;;;;;5179395;28;20025;-73
2022/05/05 04:27:25;;;;;;;0.80;0.80;;;9.80;99.90;;;;;;5167474;28;20029;-77
2022/05/05 04:30:17;;;;;;;0.70;0.70;;;10.00;99.90;;;;;;5161790;28;20029;-76
2022/05/05 04:32:52;;;;;;;0.85;0.85;;;10.10;99.90;;;;;;5173099;28;20036;-75
2022/05/05 04:35:23;;;;;;;0.80;0.80;;;10.40;99.90;;;;;;5179108;28;20026;-74
2022/05/05 04:37:57;;;;;;;0.70;0.70;;;10.50;99.90;;;;;;5179799;28;20232;-78
2022/05/05 04:40:31;;;;;;;1.45;1.35;;;10.70;99.90;;;;;;5160333;28;20057;-75
2022/05/05 04:43:02;;;;;;;1.75;1.65;;;10.90;99.90;;;;;;5168600;28;20344;-76
2022/05/05 04:45:36;;;;;;;0.88;0.88;;;11.30;99.90;;;;;;5178491;28;20184;-75
2022/05/05 04:48:08;;;;;;;0.95;0.95;;;11.50;99.90;;;;;;5175684;28;20037;-75
2022/05/05 04:50:39;;;;;;;0.70;0.70;;;11.60;99.90;;;;;;5162115;28;20030;-74
2022/05/05 04:53:10;;;;;;;0.68;0.68;;;11.70;99.90;;;;;;5149095;28;20072;-76
2022/05/05 04:55:41;;;;;;;0.90;0.90;;;12.00;99.90;;;;;;5185225;28;20029;-76
2022/05/05 04:58:14;;;;;;;0.90;0.90;;;12.20;99.90;;;;;;5184672;28;20030;-75
2022/05/05 05:00:45;;;;;;;1.63;1.52;;;12.30;99.90;;;;;;5154718;28;20333;-76
2022/05/05 05:06:10;;;;;;;1.75;1.65;;;12.80;99.90;;;;;;5157141;28;20050;-75
2022/05/05 05:08:44;;;;;;;1.02;1.00;;;13.00;99.90;;;;;;5172262;28;20451;-77
2022/05/05 05:11:15;;;;;;;0.77;0.77;;;13.20;99.90;;;;;;5171921;28;20030;-77
2022/05/05 05:13:46;;;;;;;0.70;0.70;;;13.30;99.90;;;;;;5171011;28;20034;-80
2022/05/05 05:19:45;;;;;;;2.13;1.92;;;14.00;99.90;;;;;;5164534;28;20040;-78
2022/05/05 05:22:17;;;;;;;0.60;0.60;;;14.40;99.90;;;;;;5179950;28;20044;-77
2022/05/05 05:24:48;;;;;;;1.20;1.20;;;14.70;99.90;;;;;;5180268;28;20028;-77
2022/05/05 05:27:19;;;;;;;0.55;0.55;;;15.00;99.90;;;;;;5180922;28;20048;-76
2022/05/05 05:29:50;;;;;;;0.80;0.80;;;15.40;99.90;;;;;;5163017;28;20041;-77
2022/05/05 05:32:24;;;;;;;0.80;0.80;;;15.60;99.90;;;;;;5180889;28;20026;-77
2022/05/05 05:34:55;;;;;;;1.02;1.02;;;15.70;99.90;;;;;;5164917;28;20273;-77
2022/05/05 05:37:26;;;;;;;0.70;0.70;;;15.80;99.90;;;;;;5162860;28;20036;-77
2022/05/05 05:39:58;;;;;;;0.70;0.70;;;16.10;99.90;;;;;;5178406;28;20048;-77
2022/05/05 05:42:29;;;;;;;0.70;0.70;;;16.50;99.90;;;;;;5161637;28;20197;-76
2022/05/05 05:45:02;;;;;;;0.60;0.60;;;17.00;99.90;;;;;;5176434;28;20030;-77
2022/05/05 05:47:37;;;;;;;0.55;0.55;;;17.20;99.90;;;;;;5178498;28;20308;-77
2022/05/05 05:50:11;;;;;;;0.73;0.73;;;17.60;99.90;;;;;;5177179;28;20339;-79
2022/05/05 05:52:42;;;;;;;0.82;0.82;;;18.10;99.90;;;;;;5164679;28;20026;-77
2022/05/05 05:55:19;;;;;;;1.25;1.25;;;18.20;99.90;;;;;;5178548;28;20026;-77
2022/05/05 05:57:50;;;;;;;1.17;1.17;;;18.10;99.90;;;;;;5179109;28;20316;-77
2022/05/05 06:00:22;;;;;;;1.88;1.77;;;18.50;99.90;;;;;;5179964;28;20025;-78
2022/05/05 06:05:43;;;;;;;1.80;1.70;;;18.70;99.90;;;;;;5156344;28;20058;-77
2022/05/05 06:08:20;;;;;;;0.98;0.98;;;18.90;99.90;;;;;;5141571;28;20217;-76
2022/05/05 06:10:53;;;;;;;0.90;0.90;;;19.60;99.90;;;;;;5142593;28;20226;-76
2022/05/05 06:13:24;;;;;;;2.00;1.90;;;19.90;99.90;;;;;;5154345;28;20252;-78
2022/05/05 06:15:56;;;;;;;0.73;0.73;;;20.10;99.90;;;;;;5165772;28;20026;-78
2022/05/05 06:18:30;;;;;;;0.70;0.70;;;20.30;99.90;;;;;;5165981;28;20018;-78
2022/05/05 06:21:04;;;;;;;0.85;0.85;;;20.60;99.90;;;;;;5167211;28;20052;-79
2022/05/05 06:23:37;;;;;;;2.03;1.80;;;21.10;99.90;;;;;;5166957;28;20308;-77
2022/05/05 06:26:10;;;;;;;0.70;0.70;;;21.30;99.90;;;;;;5167130;28;20034;-76
2022/05/05 06:28:43;;;;;;;3.22;2.22;;;21.20;99.90;;;;;;5166196;28;20038;-80
2022/05/05 06:31:17;;;;;;;1.35;1.35;;;21.50;99.90;;;;;;5148949;28;20030;-79
2022/05/05 06:33:51;;;;;;;0.80;0.80;;;21.70;99.90;;;;;;5167066;28;20321;-77
2022/05/05 06:36:24;;;;;;;0.47;0.47;;;22.00;99.90;;;;;;5165891;28;20026;-77
2022/05/05 06:38:57;;;;;;;0.80;0.80;;;22.10;99.90;;;;;;5166395;28;20037;-78
2022/05/05 06:41:28;;;;;;;1.65;1.20;;;21.90;99.90;;;;;;5148192;28;20038;-77
2022/05/05 06:44:00;;;;;;;0.68;0.68;;;21.70;99.90;;;;;;5165099;28;20304;-76
2022/05/05 06:46:32;;;;;;;0.40;0.40;;;22.10;99.90;;;;;;5166995;28;20019;-78
2022/05/05 06:49:03;;;;;;;0.60;0.60;;;22.40;99.90;;;;;;5151280;28;20026;-76
2022/05/05 06:51:37;;;;;;;1.00;1.00;;;22.80;99.90;;;;;;5165650;28;20034;-77
2022/05/05 06:54:08;;;;;;;0.60;0.60;;;23.00;99.90;;;;;;5165699;28;20018;-77
2022/05/05 06:56:42;;;;;;;0.85;0.85;;;23.40;99.90;;;;;;5164209;28;20034;-78
2022/05/05 06:59:15;;;;;;;1.30;1.05;;;23.60;99.90;;;;;;5165910;28;20220;-77
2022/05/05 07:01:52;;;;;;;0.60;0.60;;;23.30;99.90;;;;;;5165970;28;20030;-78
2022/05/05 07:07:23;;;;;;;0.88;0.88;;;23.60;99.90;;;;;;5152769;28;20030;-79
2022/05/05 07:12:44;;;;;;;0.50;0.50;;;24.20;99.90;;;;;;5165487;28;20239;-78
2022/05/05 07:15:18;;;;;;;0.47;0.47;;;23.90;99.90;;;;;;5164011;28;20367;-78
2022/05/05 07:17:49;;;;;;;0.63;0.63;;;24.30;99.90;;;;;;5163847;28;20073;-78
2022/05/05 07:20:20;;;;;;;0.40;0.40;;;24.10;99.90;;;;;;5163781;28;20343;-79
2022/05/05 07:22:52;;;;;;;0.73;0.73;;;24.70;99.90;;;;;;5168643;28;20106;-79
2022/05/05 07:25:24;;;;;;;0.32;0.32;;;24.80;99.90;;;;;;5170075;28;20036;-79
2022/05/05 07:27:55;;;;;;;0.50;0.50;;;24.90;99.90;;;;;;5149447;28;20042;-79
2022/05/05 07:30:26;;;;;;;1.65;0.75;;;25.00;99.90;;;;;;5167695;28;20034;-78
2022/05/05 07:33:00;;;;;;;0.50;0.50;;;24.40;99.90;;;;;;5147499;28;20035;-80
2022/05/05 07:35:33;;;;;;;0.20;0.20;;;23.90;99.90;;;;;;5146524;28;20026;-78
2022/05/05 07:38:08;;;;;;;0.30;0.30;;;24.10;99.90;;;;;;5144254;28;20032;-79
2022/05/05 07:40:40;;;;;;;0.30;0.30;;;24.50;99.90;;;;;;5161132;28;20336;-79
2022/05/05 07:43:12;;;;;;;0.43;0.43;;;24.70;99.90;;;;;;5163043;28;20350;-79
2022/05/05 07:45:43;;;;;;;0.50;0.50;;;24.30;99.90;;;;;;5161876;28;20045;-78
2022/05/05 07:48:15;;;;;;;0.40;0.40;;;23.90;99.90;;;;;;5160167;28;20030;-79
2022/05/05 07:50:49;;;;;;;0.40;0.40;;;23.40;99.90;;;;;;5161100;28;20046;-79
2022/05/05 07:53:23;;;;;;;0.38;0.38;;;23.70;99.90;;;;;;5162329;28;20283;-80
2022/05/05 07:55:54;;;;;;;0.50;0.50;;;22.10;99.90;;;;;;5156291;28;20053;-79
2022/05/05 07:58:26;;;;;;;0.70;0.70;;;21.60;99.90;;;;;;5137956;28;20335;-78
2022/05/05 08:01:00;;;;;;;0.40;0.40;;;23.00;99.90;;;;;;5143229;28;20348;-77
2022/05/05 08:03:34;;;;;;;0.30;0.30;;;22.90;99.90;;;;;;5162746;28;20304;-78
2022/05/05 08:06:07;;;;;;;0.37;0.37;;;23.30;99.90;;;;;;5165605;28;20052;-78
2022/05/05 08:08:39;;;;;;;0.30;0.30;;;23.00;99.90;;;;;;5183638;28;20025;-77
2022/05/05 08:11:10;;;;;;;0.50;0.50;;;23.30;99.90;;;;;;5182043;28;20029;-77
2022/05/05 08:13:41;;;;;;;0.30;0.30;;;24.00;99.90;;;;;;5181655;28;20022;-77
2022/05/05 08:16:12;;;;;;;1.05;1.05;;;24.50;99.90;;;;;;5182336;28;20034;-78
2022/05/05 08:18:44;;;;;;;0.50;0.50;;;23.70;99.90;;;;;;5166742;28;20234;-78
2022/05/05 08:21:15;;;;;;;0.55;0.55;;;23.80;99.90;;;;;;5182785;28;20028;-80
2022/05/05 08:28:27;;;;;;;0.50;0.50;;;24.30;99.90;;;;;;5194624;28;20022;-80
2022/05/05 08:29:35;;;;;;;0.43;0.43;;;25.00;99.90;;;;;;5184474;28;20040;-79
2022/05/05 08:32:14;;;;;;;1.00;1.00;;;24.80;99.90;;;;;;5181274;28;20017;-78
2022/05/05 08:34:47;;;;;;;0.77;0.77;;;24.70;99.90;;;;;;5163051;28;20349;-77
2022/05/05 08:37:18;;;;;;;0.93;0.93;;;24.90;99.90;;;;;;5179903;28;20032;-80
2022/05/05 08:39:50;;;;;;;0.47;0.47;;;25.30;99.90;;;;;;5180771;28;20404;-77
2022/05/05 08:42:21;;;;;;;0.52;0.52;;;25.50;99.90;;;;;;5181105;28;20411;-77
2022/05/05 08:44:52;;;;;;;0.52;0.52;;;26.10;99.90;;;;;;5178793;28;20037;-77
2022/05/05 08:47:26;;;;;;;0.45;0.45;;;26.10;99.90;;;;;;5179691;28;20251;-78
2022/05/05 08:50:01;;;;;;;0.60;0.60;;;26.60;99.90;;;;;;5146421;28;20360;-78
2022/05/05 08:52:36;;;;;;;0.40;0.40;;;26.30;99.90;;;;;;5181446;28;20021;-78
2022/05/05 08:55:14;;;;;;;0.40;0.40;;;25.90;99.90;;;;;;5179284;28;20267;-79
2022/05/05 08:57:46;;;;;;;0.30;0.30;;;26.00;99.90;;;;;;5162955;28;20030;-79
2022/05/05 09:00:19;;;;;;;0.30;0.30;;;26.30;99.90;;;;;;5180375;28;20361;-76
2022/05/05 09:03:00;;;;;;;0.60;0.60;;;25.30;99.90;;;;;;5179492;28;20029;-76
2022/05/05 09:05:52;;;;;;;0.30;0.30;;;23.70;99.90;;;;;;5163689;28;20053;-77
2022/05/05 09:08:24;;;;;;;0.43;0.43;;;22.40;99.90;;;;;;5156019;28;20030;-78
2022/05/05 09:11:20;;;;;;;0.30;0.30;;;22.10;99.90;;;;;;5143379;28;20226;-77
2022/05/05 09:13:54;;;;;;;0.30;0.30;;;22.80;99.90;;;;;;5160694;28;20030;-78
2022/05/05 09:16:26;;;;;;;0.30;0.30;;;23.30;99.90;;;;;;5158766;28;20431;-76
2022/05/05 09:19:03;;;;;;;0.30;0.30;;;23.70;99.90;;;;;;5155910;28;20046;-76
2022/05/05 09:21:41;;;;;;;0.30;0.30;;;23.10;99.90;;;;;;5143827;28;20046;-77
2022/05/05 09:27:23;;;;;;;0.35;0.35;;;22.80;99.90;;;;;;5156918;28;20373;-76
2022/05/05 09:30:00;;;;;;;0.50;0.50;;;22.60;99.90;;;;;;5160198;28;20036;-79
2022/05/05 09:32:43;;;;;;;0.32;0.32;;;23.50;99.90;;;;;;5159656;28;20185;-76
2022/05/05 09:35:18;;;;;;;0.60;0.60;;;24.30;99.90;;;;;;5158339;28;20027;-79
2022/05/05 09:37:55;;;;;;;0.50;0.50;;;24.70;99.90;;;;;;5142027;28;20044;-77
2022/05/05 09:40:29;;;;;;;0.60;0.60;;;23.70;99.90;;;;;;5141145;28;20244;-77
2022/05/05 09:43:06;;;;;;;;;;;23.50;99.90;;;;;;5174884;28;20053;-80
2022/05/05 09:45:40;;;;;;;0.40;0.40;;;23.50;99.90;;;;;;5142832;28;19909;-78
2022/05/05 09:48:16;;;;;;;0.30;0.30;;;24.90;99.90;;;;;;5159417;28;20336;-77
2022/05/05 09:50:52;;;;;;;0.40;0.40;;;24.90;99.90;;;;;;5159837;28;20029;-78
2022/05/05 09:59:11;;;;;;;0.30;0.30;;;27.40;99.90;;;;;;5151646;28;20041;-79
2022/05/05 10:01:45;;;;;;;0.30;0.30;;;27.60;99.90;;;;;;5157595;28;20065;-78
2022/05/05 10:04:23;;;;;;;0.50;0.50;;;26.60;99.90;;;;;;5116699;28;20415;-77
2022/05/05 10:06:57;;;;;;;0.30;0.30;;;25.70;99.90;;;;;;5173321;28;20034;-77
2022/05/05 10:09:32;;;;;;;0.30;0.30;;;25.50;99.90;;;;;;5157742;28;20042;-78
2022/05/05 10:12:07;;;;;;;0.40;0.40;;;25.70;99.90;;;;;;5159335;28;20064;-77
2022/05/05 10:14:43;;;;;;;0.43;0.43;;;25.30;99.90;;;;;;5159703;28;20018;-79
2022/05/05 10:17:14;;;;;;;0.35;0.35;;;25.20;99.90;;;;;;5158956;28;20341;-77
2022/05/05 10:19:46;;;;;;;0.30;0.30;;;25.50;99.90;;;;;;5178277;28;20238;-78
2022/05/05 10:22:27;;;;;;;0.50;0.50;;;27.00;99.90;;;;;;5161460;28;20022;-78
2022/05/05 10:25:18;;;;;;;0.93;0.93;;;27.70;99.90;;;;;;5161226;28;20323;-80
2022/05/05 10:27:50;;;;;;;0.40;0.40;;;29.70;99.90;;;;;;5179769;28;20319;-78
2022/05/05 10:30:36;;;;;;;0.55;0.55;;;29.80;99.90;;;;;;5157757;28;20041;-79
2022/05/05 10:33:13;;;;;;;0.20;0.20;;;30.10;99.90;;;;;;5179743;28;20048;-81
2022/05/05 10:35:47;;;;;;;0.38;0.38;;;30.30;99.90;;;;;;5167337;28;20037;-79
2022/05/05 10:38:39;;;;;;;0.40;0.40;;;30.40;99.90;;;;;;5141830;28;20026;-78
2022/05/05 10:41:46;;;;;;;0.30;0.30;;;29.80;99.90;;;;;;5141138;28;20038;-80
2022/05/05 10:44:23;;;;;;;0.30;0.30;;;29.00;99.90;;;;;;5099315;29;20336;-80
2022/05/05 10:47:07;;;;;;;0.57;0.50;;;29.50;99.90;;;;;;5115960;29;20242;-79
2022/05/05 10:49:39;;;;;;;0.30;0.30;;;30.80;99.90;;;;;;5100303;28;20043;-79
2022/05/05 10:52:13;;;;;;;0.30;0.30;;;30.30;99.90;;;;;;5118697;28;20562;-79
2022/05/05 10:54:50;;;;;;;0.30;0.30;;;30.20;99.90;;;;;;5133418;28;20212;-78
2022/05/05 10:57:24;;;;;;;1.88;1.10;;;29.40;99.90;;;;;;5134705;28;20045;-79
2022/05/05 11:00:11;;;;;;;0.45;0.45;;;29.20;99.90;;;;;;5133877;28;20042;-79
2022/05/05 11:03:19;;;;;;;0.30;0.30;;;27.60;99.90;;;;;;5139135;28;20344;-80
2022/05/05 11:05:50;;;;;;;0.30;0.30;;;25.40;99.90;;;;;;5129118;28;20050;-77
2022/05/05 11:08:21;;;;;;;2.03;0.57;;;25.50;99.90;;;;;;5124459;28;20357;-77
2022/05/05 11:13:47;;;;;;;0.30;0.30;;;25.00;99.90;;;;;;5139212;28;20042;-77
2022/05/05 11:22:28;;;;;;;0.30;0.30;;;24.60;99.90;;;;;;5183617;28;20325;-78
2022/05/05 11:25:01;;;;;;;0.73;0.60;;;24.50;99.90;;;;;;5182078;28;20041;-79
2022/05/05 11:27:35;;;;;;;0.40;0.40;;;24.60;99.90;;;;;;5185216;28;20044;-79
2022/05/05 11:30:08;;;;;;;0.33;0.33;;;24.00;99.90;;;;;;5183046;28;20032;-77
2022/05/05 11:32:44;;;;;;;0.20;0.20;;;23.90;99.90;;;;;;5183994;28;20034;-75
2022/05/05 11:35:22;;;;;;;0.38;0.38;;;23.70;99.90;;;;;;5182915;28;20104;-80
2022/05/05 11:37:53;;;;;;;0.30;0.30;;;23.30;99.90;;;;;;5184291;28;20288;-76
2022/05/05 11:40:27;;;;;;;0.40;0.40;;;23.60;99.90;;;;;;5184262;28;20041;-79
2022/05/05 11:45:54;;;;;;;0.30;0.30;;;23.50;99.90;;;;;;5184197;28;20038;-77
2022/05/05 11:48:29;;;;;;;0.30;0.30;;;23.00;99.90;;;;;;5183262;28;20030;-77
2022/05/05 11:51:06;;;;;;;0.77;0.77;;;22.10;99.90;;;;;;5181959;28;20369;-77
2022/05/05 11:53:37;;;;;;;0.40;0.40;;;21.80;99.90;;;;;;5164709;28;20347;-77
2022/05/05 11:56:19;;;;;;;0.50;0.50;;;21.50;99.90;;;;;;5181852;28;20025;-79
2022/05/05 12:01:59;;;;;;;0.40;0.40;;;21.10;99.90;;;;;;5128631;28;20034;-76
2022/05/05 12:04:32;;;;;;;0.25;0.25;;;21.30;99.90;;;;;;5174323;28;20281;-79
2022/05/05 12:07:08;;;;;;;0.30;0.30;;;21.10;99.90;;;;;;5194381;28;20030;-77
2022/05/05 12:09:42;;;;;;;1.30;0.65;;;21.50;99.90;;;;;;5162174;28;20045;-78
2022/05/05 12:12:24;;;;;;;0.32;0.32;;;21.90;99.90;;;;;;5162078;28;20028;-77
2022/05/05 12:15:01;;;;;;;0.35;0.35;;;22.00;99.90;;;;;;5181075;28;20346;-75
2022/05/05 12:17:52;;;;;;;0.50;0.50;;;21.70;99.90;;;;;;5181891;28;20030;-75
2022/05/05 12:20:33;;;;;;;1.60;1.45;;;20.70;99.90;;;;;;5180671;28;20034;-76
2022/05/05 12:23:04;;;;;;;0.30;0.30;;;20.30;99.90;;;;;;5180476;28;20034;-77
2022/05/05 12:25:36;;;;;;;0.57;0.57;;;20.00;99.90;;;;;;5146188;28;20040;-80
2022/05/05 12:28:09;;;;;;;7.10;1.38;;;19.80;99.90;;;;;;5180900;28;20043;-77
2022/05/05 12:30:49;;;;;;;0.43;0.43;;;20.00;99.90;;;;;;5181786;28;20327;-77
2022/05/05 12:33:35;;;;;;;0.60;0.60;;;20.00;99.90;;;;;;5182201;28;20041;-76
2022/05/05 12:36:13;;;;;;;0.40;0.40;;;20.10;99.90;;;;;;5157408;28;20024;-77
2022/05/05 12:38:45;;;;;;;1.40;1.30;;;20.20;99.90;;;;;;5185540;28;20026;-78
2022/05/05 12:41:16;;;;;;;0.65;0.65;;;20.60;99.90;;;;;;5186334;28;20030;-76
2022/05/05 12:43:48;;;;;;;1.05;1.05;;;20.60;99.90;;;;;;5169119;28;20038;-78
2022/05/05 12:46:19;;;;;;;0.60;0.60;;;20.80;99.90;;;;;;5173448;28;20403;-78
2022/05/05 12:48:54;;;;;;;0.77;0.77;;;21.00;99.90;;;;;;5174952;28;20347;-80
2022/05/05 12:51:30;;;;;;;11.35;0.98;;;21.70;99.90;;;;;;5189848;28;20338;-79
2022/05/05 12:59:48;;;;;;;0.50;0.50;;;24.70;99.90;;;;;;5170253;28;20037;-78
2022/05/05 13:02:24;;;;;;;1.20;1.13;;;25.00;99.90;;;;;;5175935;28;20228;-77
2022/05/05 13:04:55;;;;;;;0.60;0.60;;;23.50;99.90;;;;;;5163562;28;20180;-77
2022/05/05 13:07:29;;;;;;;0.35;0.35;;;23.50;99.90;;;;;;5154133;28;20038;-77
2022/05/05 13:10:00;;;;;;;0.40;0.40;;;25.30;99.90;;;;;;5162279;28;20052;-79
2022/05/05 13:12:32;;;;;;;0.52;0.52;;;26.40;99.90;;;;;;5167684;28;20582;-77
2022/05/05 13:15:04;;;;;;;0.28;0.28;;;26.10;99.90;;;;;;5158183;28;20042;-76
2022/05/05 13:17:35;;;;;;;0.52;0.52;;;27.60;99.90;;;;;;5159359;28;20026;-80
2022/05/05 13:20:10;;;;;;;0.40;0.40;;;30.20;99.90;;;;;;5156864;28;20169;-77
2022/05/05 13:22:43;;;;;;;0.47;0.47;;;31.60;99.90;;;;;;5163266;28;20034;-79
2022/05/05 13:25:15;;;;;;;0.43;0.43;;;31.40;99.90;;;;;;5157228;28;20658;-78
2022/05/05 13:27:51;;;;;;;0.32;0.32;;;28.50;99.90;;;;;;5175670;28;20219;-77
2022/05/05 13:30:22;;;;;;;1.08;0.50;;;28.30;99.90;;;;;;5177810;28;20030;-78
2022/05/05 13:32:54;;;;;;;0.52;0.52;;;28.90;99.90;;;;;;5177158;28;20032;-77
2022/05/05 13:35:27;;;;;;;0.40;0.40;;;28.70;99.90;;;;;;5174339;28;20098;-76
2022/05/05 13:38:00;;;;;;;0.40;0.40;;;27.60;99.90;;;;;;5157316;28;20041;-74
2022/05/05 13:40:32;;;;;;;14.00;0.80;;;27.00;99.90;;;;;;5156871;28;20042;-79
2022/05/05 13:43:04;;;;;;;0.30;0.30;;;25.50;99.90;;;;;;5156836;28;20044;-80
2022/05/05 13:45:35;;;;;;;0.68;0.68;;;26.10;99.90;;;;;;5157288;28;20030;-75
2022/05/05 13:48:06;;;;;;;0.43;0.43;;;29.30;99.90;;;;;;5175233;28;20232;-79
2022/05/05 13:50:38;;;;;;;0.40;0.40;;;31.10;99.90;;;;;;5175812;28;20042;-78
2022/05/05 13:53:09;;;;;;;0.65;0.65;;;29.40;99.90;;;;;;5176471;28;20026;-78
2022/05/05 13:55:42;;;;;;;0.35;0.35;;;28.20;99.90;;;;;;5150235;28;20041;-77
2022/05/05 13:58:13;;;;;;;0.80;0.80;;;29.20;99.90;;;;;;5159945;28;20353;-77
2022/05/05 14:00:44;;;;;;;0.35;0.35;;;30.60;99.90;;;;;;5177153;28;20048;-78
2022/05/05 14:03:19;;;;;;;0.43;0.43;;;30.30;99.90;;;;;;5158243;28;20041;-78
2022/05/05 14:05:52;;;;;;;0.45;0.45;;;28.30;99.90;;;;;;5166396;28;20330;-77
2022/05/05 14:14:07;;;;;;;0.63;0.63;;;24.20;99.90;;;;;;5156004;28;20321;-78
2022/05/05 14:16:38;;;;;;;1.25;1.15;;;23.60;99.90;;;;;;5161276;28;20045;-76
2022/05/05 14:19:10;;;;;;;0.57;0.57;;;23.60;99.90;;;;;;5177367;28;20034;-77
2022/05/05 14:21:41;;;;;;;1.00;1.00;;;24.10;99.90;;;;;;5176631;28;20320;-77
2022/05/05 14:24:13;;;;;;;0.40;0.40;;;23.80;99.90;;;;;;5159037;28;20048;-78
2022/05/05 14:26:47;;;;;;;0.50;0.50;;;23.40;99.90;;;;;;5178086;28;20147;-78
2022/05/05 14:29:18;;;;;;;0.40;0.40;;;23.10;99.90;;;;;;5176643;28;20022;-75